createdAt,value
2022-10-17T00:01:23.194Z,0.74
2022-10-17T00:04:26.325Z,1.54
2022-10-17T00:07:29.681Z,1.70
2022-10-17T00:10:33.095Z,1.24
2022-10-17T00:13:36.833Z,0.72
2022-10-17T00:16:39.981Z,0.15
2022-10-17T00:19:43.476Z,-0.24
2022-10-17T00:22:46.618Z,-0.49
2022-10-17T00:25:59.181Z,-0.67
2022-10-17T00:29:02.232Z,-0.94
2022-10-17T00:32:05.602Z,-1.11
2022-10-17T00:35:09.860Z,-1.16
2022-10-17T00:38:12.946Z,-1.21
2022-10-17T00:41:18.113Z,-1.23
2022-10-17T00:44:30.283Z,-1.19
2022-10-17T00:47:35.217Z,-1.09
2022-10-17T00:50:39.465Z,-0.84
2022-10-17T00:53:42.646Z,-0.77
2022-10-17T00:56:48.129Z,-0.77
2022-10-17T00:59:55.041Z,-0.77
2022-10-17T01:02:58.039Z,-0.75
2022-10-17T01:06:01.160Z,-0.60
2022-10-17T01:09:04.368Z,-0.49
2022-10-17T01:12:13.841Z,-0.45
2022-10-17T01:15:58.270Z,-0.49
2022-10-17T01:19:08.342Z,-0.36
2022-10-17T01:22:19.971Z,-0.15
2022-10-17T01:25:48.937Z,0.14
2022-10-17T01:29:10.528Z,0.32
2022-10-17T01:32:19.907Z,0.44
2022-10-17T01:35:59.400Z,0.59
2022-10-17T01:39:15.543Z,0.71
2022-10-17T01:42:29.325Z,0.77
2022-10-17T01:45:54.506Z,0.81
2022-10-17T01:49:01.434Z,0.94
2022-10-17T01:52:13.302Z,1.01
2022-10-17T01:55:22.279Z,1.03
2022-10-17T01:58:49.870Z,1.10
2022-10-17T02:01:56.462Z,1.21
2022-10-17T02:05:02.552Z,1.31
2022-10-17T02:08:06.379Z,1.34
2022-10-17T02:11:17.369Z,1.41
2022-10-17T02:14:46.587Z,1.59
2022-10-17T02:18:11.283Z,1.74
2022-10-17T02:21:29.318Z,1.80
2022-10-17T02:24:55.635Z,1.88
2022-10-17T02:28:30.904Z,1.96
2022-10-17T02:31:46.878Z,1.85
2022-10-17T02:34:56.170Z,2.05
2022-10-17T02:38:00.480Z,2.07
2022-10-17T02:41:05.961Z,2.14
2022-10-17T02:44:10.352Z,2.19
2022-10-17T02:48:05.703Z,2.33
2022-10-17T02:51:23.864Z,2.48
2022-10-17T02:54:36.980Z,2.63
2022-10-17T02:57:49.351Z,2.70
2022-10-17T03:00:53.605Z,2.74
2022-10-17T03:04:11.711Z,2.80
2022-10-17T03:07:14.917Z,2.86
2022-10-17T03:10:18.357Z,2.92
2022-10-17T03:13:21.506Z,2.94
2022-10-17T03:16:25.661Z,3.01
2022-10-17T03:19:28.792Z,3.04
2022-10-17T03:22:32.825Z,3.09
2022-10-17T03:25:37.777Z,3.14
2022-10-17T03:28:41.693Z,3.22
2022-10-17T03:31:44.759Z,3.33
2022-10-17T03:34:47.970Z,3.46
2022-10-17T03:37:51.180Z,3.60
2022-10-17T03:40:57.391Z,3.61
2022-10-17T03:44:00.662Z,3.67
2022-10-17T03:47:04.041Z,3.65
2022-10-17T03:50:08.090Z,3.71
2022-10-17T03:53:13.303Z,3.79
2022-10-17T03:56:22.501Z,3.91
2022-10-17T03:59:33.235Z,3.94
2022-10-17T04:02:45.535Z,4.01
2022-10-17T04:05:54.651Z,4.13
2022-10-17T04:08:57.712Z,4.16
2022-10-17T04:12:06.133Z,4.19
2022-10-17T04:15:11.792Z,4.24
2022-10-17T04:18:15.060Z,4.37
2022-10-17T04:21:19.346Z,4.44
2022-10-17T04:24:22.479Z,4.49
2022-10-17T04:27:41.567Z,4.61
2022-10-17T04:30:45.659Z,4.68
2022-10-17T04:33:50.873Z,4.78
2022-10-17T04:36:54.613Z,4.82
2022-10-17T04:39:57.867Z,4.89
2022-10-17T04:43:01.085Z,4.88
2022-10-17T04:46:13.141Z,4.95
2022-10-17T04:49:16.383Z,4.90
2022-10-17T04:52:22.674Z,4.96
2022-10-17T04:55:26.710Z,5.05
2022-10-17T04:58:31.023Z,5.10
2022-10-17T05:01:34.083Z,5.18
2022-10-17T05:04:37.227Z,5.20
2022-10-17T05:07:41.915Z,5.30
2022-10-17T05:10:55.703Z,5.25
2022-10-17T05:14:01.695Z,5.31
2022-10-17T05:17:06.913Z,5.34
2022-10-17T05:20:11.643Z,5.42
2022-10-17T05:23:15.604Z,5.52
2022-10-17T05:26:20.974Z,5.58
2022-10-17T05:29:24.695Z,5.58
2022-10-17T05:32:36.008Z,5.57
2022-10-17T05:35:39.222Z,5.64
2022-10-17T05:38:42.540Z,5.78
2022-10-17T05:41:47.612Z,5.87
2022-10-17T05:44:50.897Z,5.94
2022-10-17T05:47:55.375Z,6.14
2022-10-17T05:51:01.182Z,6.12
2022-10-17T05:54:08.779Z,6.13
2022-10-17T05:57:12.793Z,6.13
2022-10-17T06:00:17.402Z,6.20
2022-10-17T06:03:30.830Z,6.24
2022-10-17T06:06:38.617Z,6.29
2022-10-17T06:09:42.104Z,6.32
2022-10-17T06:12:45.845Z,6.38
2022-10-17T06:15:51.115Z,6.32
2022-10-17T06:18:55.119Z,6.29
2022-10-17T06:21:59.249Z,6.38
2022-10-17T06:25:03.969Z,6.48
2022-10-17T06:28:07.740Z,6.57
2022-10-17T06:31:15.172Z,6.62
2022-10-17T06:34:18.652Z,6.67
2022-10-17T06:37:22.302Z,6.78
2022-10-17T06:40:26.190Z,6.86
2022-10-17T06:43:30.960Z,6.92
2022-10-17T06:46:52.395Z,6.93
2022-10-17T06:49:57.339Z,6.89
2022-10-17T06:53:07.073Z,6.84
2022-10-17T06:56:25.756Z,6.87
2022-10-17T06:59:36.570Z,6.85
2022-10-17T07:02:54.971Z,6.81
2022-10-17T07:05:59.765Z,6.85
2022-10-17T07:09:04.098Z,6.90
2022-10-17T07:12:09.160Z,6.88
2022-10-17T07:15:18.354Z,6.86
2022-10-17T07:18:21.657Z,6.85
2022-10-17T07:21:24.867Z,6.85
2022-10-17T07:24:28.817Z,6.88
2022-10-17T07:27:53.391Z,6.90
2022-10-17T07:31:03.720Z,6.81
2022-10-17T07:34:08.194Z,6.76
2022-10-17T07:37:11.407Z,6.68
2022-10-17T07:40:18.304Z,6.67
2022-10-17T07:43:21.605Z,6.64
2022-10-17T07:46:25.167Z,6.61
2022-10-17T07:49:28.326Z,6.60
2022-10-17T07:52:32.662Z,6.63
2022-10-17T07:55:37.595Z,6.59
2022-10-17T07:58:41.475Z,6.54
2022-10-17T08:01:44.643Z,6.52
2022-10-17T08:04:47.806Z,6.47
2022-10-17T08:07:51.161Z,6.43
2022-10-17T08:10:56.057Z,6.42
2022-10-17T08:13:59.315Z,6.38
2022-10-17T08:17:02.608Z,6.32
2022-10-17T08:20:07.501Z,6.23
2022-10-17T08:23:11.477Z,6.14
2022-10-17T08:26:17.893Z,6.21
2022-10-17T08:29:21.326Z,6.22
2022-10-17T08:32:27.238Z,6.16
2022-10-17T08:35:30.784Z,6.12
2022-10-17T08:38:36.865Z,6.24
2022-10-17T08:41:46.432Z,6.23
2022-10-17T08:45:05.727Z,6.13
2022-10-17T08:48:16.768Z,5.96
2022-10-17T08:51:29.084Z,5.84
2022-10-17T08:54:49.222Z,5.68
2022-10-17T08:57:52.514Z,5.49
2022-10-17T09:01:01.764Z,5.38
2022-10-17T09:04:27.209Z,5.29
2022-10-17T09:07:43.255Z,5.18
2022-10-17T09:10:55.554Z,5.04
2022-10-17T09:14:12.211Z,4.88
2022-10-17T09:17:37.509Z,4.67
2022-10-17T09:20:43.671Z,4.44
2022-10-17T09:23:59.471Z,4.32
2022-10-17T09:27:21.325Z,4.30
2022-10-17T09:30:51.585Z,4.21
2022-10-17T09:33:58.046Z,3.97
2022-10-17T09:37:03.007Z,3.73
2022-10-17T09:40:08.054Z,3.63
2022-10-17T09:43:16.003Z,3.40
2022-10-17T09:46:26.486Z,3.16
2022-10-17T09:49:39.303Z,2.94
2022-10-17T09:52:49.333Z,2.79
2022-10-17T09:55:58.669Z,2.69
2022-10-17T09:59:02.210Z,2.61
2022-10-17T10:02:14.690Z,2.56
2022-10-17T10:05:21.121Z,2.46
2022-10-17T10:08:26.307Z,2.39
2022-10-17T10:11:55.970Z,2.33
2022-10-17T10:14:59.806Z,2.29
2022-10-17T10:18:03.513Z,2.22
2022-10-17T10:21:18.606Z,2.19
2022-10-17T10:24:21.543Z,2.27
2022-10-17T10:27:25.037Z,2.20
2022-10-17T10:30:36.115Z,2.10
2022-10-17T10:33:49.450Z,2.06
2022-10-17T10:37:04.220Z,2.01
2022-10-17T10:40:09.105Z,2.00
2022-10-17T10:43:20.357Z,2.03
2022-10-17T10:46:27.922Z,2.01
2022-10-17T10:49:32.882Z,1.97
2022-10-17T10:52:40.474Z,1.95
2022-10-17T10:55:57.735Z,1.80
2022-10-17T10:59:13.378Z,1.68
2022-10-17T11:02:30.618Z,1.58
2022-10-17T11:05:45.019Z,1.51
2022-10-17T11:09:12.750Z,1.43
2022-10-17T11:12:25.144Z,1.35
2022-10-17T11:15:46.584Z,1.30
2022-10-17T11:19:27.916Z,1.26
2022-10-17T11:22:35.911Z,1.21
2022-10-17T11:25:41.791Z,1.06
2022-10-17T11:28:45.269Z,1.04
2022-10-17T11:31:53.640Z,1.04
2022-10-17T11:35:06.170Z,1.02
2022-10-17T11:38:34.236Z,0.97
2022-10-17T11:41:46.382Z,0.82
2022-10-17T11:44:54.383Z,0.70
2022-10-17T11:48:07.204Z,0.58
2022-10-17T11:54:54.735Z,0.42
2022-10-17T11:58:30.575Z,0.42
2022-10-17T12:01:40.637Z,0.67
2022-10-17T12:05:07.668Z,0.95
2022-10-17T12:08:15.073Z,1.03
2022-10-17T12:11:46.420Z,0.95
2022-10-17T12:14:49.667Z,0.88
2022-10-17T12:18:03.822Z,0.78
2022-10-17T12:21:07.112Z,0.70
2022-10-17T12:24:28.702Z,0.55
2022-10-17T12:27:46.909Z,0.54
2022-10-17T12:30:57.928Z,0.56
2022-10-17T12:34:03.394Z,0.48
2022-10-17T12:37:10.698Z,0.50
2022-10-17T12:40:38.453Z,0.50
2022-10-17T12:43:47.600Z,0.44
2022-10-17T12:47:17.125Z,0.47
2022-10-17T12:51:12.190Z,0.39
2022-10-17T12:54:21.071Z,0.27
2022-10-17T12:57:44.375Z,0.21
2022-10-17T13:01:22.490Z,0.17
2022-10-17T13:04:23.542Z,0.12
2022-10-17T13:07:27.422Z,0.03
2022-10-17T13:10:35.611Z,0.04
2022-10-17T13:13:46.275Z,-0.04
2022-10-17T13:17:01.286Z,-0.12
2022-10-17T13:20:05.460Z,-0.30
2022-10-17T13:23:23.688Z,-0.39
2022-10-17T13:26:29.429Z,-0.46
2022-10-17T13:29:33.638Z,-0.52
2022-10-17T13:32:40.421Z,-0.58
2022-10-17T13:39:13.639Z,-0.59
2022-10-17T13:42:29.575Z,-0.65
2022-10-17T13:45:34.455Z,-0.68
2022-10-17T13:48:39.591Z,-0.77
2022-10-17T13:51:46.281Z,-0.79
2022-10-17T13:54:52.002Z,-0.90
2022-10-17T13:57:55.238Z,-0.87
2022-10-17T14:00:59.291Z,-0.86
2022-10-17T14:04:19.606Z,-0.87
2022-10-17T14:08:09.451Z,-0.89
2022-10-17T14:11:24.319Z,-0.96
2022-10-17T14:14:30.369Z,-0.99
2022-10-17T14:17:39.233Z,-0.96
2022-10-17T14:21:29.195Z,-0.98
2022-10-17T14:24:29.252Z,-1.09
2022-10-17T14:27:36.069Z,-1.01
2022-10-17T14:30:56.141Z,-1.06
2022-10-17T14:34:01.775Z,-1.12
2022-10-17T14:37:10.425Z,-1.14
2022-10-17T14:40:21.832Z,-1.23
2022-10-17T14:43:28.634Z,-1.30
2022-10-17T14:46:32.181Z,-1.33
2022-10-17T14:49:42.153Z,-1.34
2022-10-17T14:53:02.211Z,-1.34
2022-10-17T14:56:22.710Z,-1.35
2022-10-17T15:02:52.996Z,-1.37
2022-10-17T15:05:56.770Z,-1.47
2022-10-17T15:09:00.682Z,-1.56
2022-10-17T15:12:07.936Z,-1.54
2022-10-17T15:15:11.475Z,-1.54
2022-10-17T15:18:15.381Z,-1.52
2022-10-17T15:21:38.494Z,-1.55
2022-10-17T15:24:44.130Z,-1.61
2022-10-17T15:27:48.612Z,-1.66
2022-10-17T15:30:51.822Z,-1.71
2022-10-17T15:33:55.092Z,-1.73
2022-10-17T15:36:59.411Z,-1.75
2022-10-17T15:40:02.688Z,-1.78
2022-10-17T15:43:05.894Z,-1.80
2022-10-17T15:46:36.252Z,-1.78
2022-10-17T15:49:40.510Z,-1.81
2022-10-17T15:52:44.249Z,-1.80
2022-10-17T15:55:50.692Z,-1.79
2022-10-17T15:58:54.413Z,-1.83
2022-10-17T16:01:57.625Z,-1.90
2022-10-17T16:05:01.181Z,-2.08
2022-10-17T16:08:05.739Z,-2.23
2022-10-17T16:11:17.617Z,-2.32
2022-10-17T16:14:20.810Z,-2.32
2022-10-17T16:17:24.072Z,-2.30
2022-10-17T16:20:27.414Z,-2.23
2022-10-17T16:23:30.717Z,-2.22
2022-10-17T16:26:34.025Z,-2.25
2022-10-17T16:29:37.084Z,-2.31
2022-10-17T16:32:40.231Z,-2.33
2022-10-17T16:35:43.607Z,-2.35
2022-10-17T16:38:47.603Z,-2.38
2022-10-17T16:41:53.568Z,-2.42
2022-10-17T16:44:59.547Z,-2.47
2022-10-17T16:48:02.700Z,-2.57
2022-10-17T16:51:06.188Z,-2.64
2022-10-17T16:54:10.024Z,-2.73
2022-10-17T16:57:13.239Z,-2.77
2022-10-17T17:00:17.072Z,-2.73
2022-10-17T17:03:20.320Z,-2.72
2022-10-17T17:06:28.798Z,-2.73
2022-10-17T17:09:32.143Z,-2.76
2022-10-17T17:12:37.030Z,-2.79
2022-10-17T17:15:40.266Z,-2.97
2022-10-17T17:18:44.104Z,-3.09
2022-10-17T17:21:53.844Z,-3.16
2022-10-17T17:24:57.185Z,-3.18
2022-10-17T17:28:00.251Z,-3.09
2022-10-17T17:31:03.490Z,-3.00
2022-10-17T17:34:08.167Z,-2.99
2022-10-17T17:37:12.587Z,-3.09
2022-10-17T17:40:15.628Z,-3.23
2022-10-17T17:43:19.479Z,-3.33
2022-10-17T17:46:23.672Z,-3.41
2022-10-17T17:49:26.680Z,-3.46
2022-10-17T17:52:30.276Z,-3.48
2022-10-17T17:55:34.839Z,-3.40
2022-10-17T17:58:38.320Z,-3.27
2022-10-17T18:01:41.556Z,-3.18
2022-10-17T18:04:44.590Z,-3.11
2022-10-17T18:07:47.929Z,-3.22
2022-10-17T18:10:55.147Z,-3.37
2022-10-17T18:14:01.283Z,-3.48
2022-10-17T18:17:04.243Z,-3.55
2022-10-17T18:20:08.210Z,-3.62
2022-10-17T18:23:12.290Z,-3.70
2022-10-17T18:26:15.823Z,-3.70
2022-10-17T18:29:18.834Z,-3.61
2022-10-17T18:32:22.098Z,-3.51
2022-10-17T18:35:25.079Z,-3.43
2022-10-17T18:38:28.263Z,-3.44
2022-10-17T18:41:35.848Z,-3.62
2022-10-17T18:44:38.821Z,-3.72
2022-10-17T18:47:45.883Z,-3.68
2022-10-17T18:50:48.903Z,-3.77
2022-10-17T18:53:54.511Z,-3.81
2022-10-17T18:56:57.531Z,-3.84
2022-10-17T19:00:00.569Z,-3.84
2022-10-17T19:03:05.461Z,-3.97
2022-10-17T19:06:10.315Z,-3.95
2022-10-17T19:09:14.936Z,-3.86
2022-10-17T19:12:17.960Z,-3.82
2022-10-17T19:15:23.737Z,-3.82
2022-10-17T19:18:28.886Z,-4.00
2022-10-17T19:21:32.287Z,-4.01
2022-10-17T19:24:35.301Z,-3.97
2022-10-17T19:27:39.900Z,-3.91
2022-10-17T19:30:43.480Z,-3.86
2022-10-17T19:33:46.675Z,-3.87
2022-10-17T19:36:50.157Z,-3.90
2022-10-17T19:39:53.190Z,-3.90
2022-10-17T19:42:56.172Z,-3.86
2022-10-17T19:46:03.908Z,-3.91
2022-10-17T19:49:07.861Z,-3.94
2022-10-17T19:52:10.945Z,-4.03
2022-10-17T19:55:13.968Z,-4.18
2022-10-17T19:58:17.029Z,-4.31
2022-10-17T20:01:25.494Z,-4.37
2022-10-17T20:04:29.761Z,-4.51
2022-10-17T20:07:32.729Z,-4.59
2022-10-17T20:10:35.961Z,-4.52
2022-10-17T20:13:40.647Z,-4.60
2022-10-17T20:16:45.348Z,-4.65
2022-10-17T20:19:48.374Z,-4.71
2022-10-17T20:22:51.400Z,-4.92
2022-10-17T20:26:08.073Z,-5.23
2022-10-17T20:29:28.808Z,-5.39
2022-10-17T20:32:40.176Z,-5.43
2022-10-17T20:38:48.039Z,-5.04
2022-10-17T20:41:51.080Z,-4.88
2022-10-17T20:44:55.538Z,-4.82
2022-10-17T20:47:58.689Z,-4.97
2022-10-17T20:51:08.997Z,-5.16
2022-10-17T20:54:13.299Z,-5.38
2022-10-17T20:57:16.717Z,-5.45
2022-10-17T21:00:19.675Z,-5.35
2022-10-17T21:03:22.713Z,-5.19
2022-10-17T21:06:26.106Z,-5.05
2022-10-17T21:09:29.185Z,-4.95
2022-10-17T21:12:50.048Z,-4.96
2022-10-17T21:15:55.459Z,-5.18
2022-10-17T21:18:59.242Z,-5.44
2022-10-17T21:22:02.424Z,-5.56
2022-10-17T21:25:05.737Z,-5.60
2022-10-17T21:28:08.783Z,-5.55
2022-10-17T21:31:17.007Z,-5.45
2022-10-17T21:34:22.042Z,-5.27
2022-10-17T21:37:25.040Z,-5.28
2022-10-17T21:40:28.123Z,-5.39
2022-10-17T21:43:31.393Z,-5.47
2022-10-17T21:46:34.939Z,-5.46
2022-10-17T21:49:38.853Z,-5.40
2022-10-17T21:52:42.181Z,-5.31
2022-10-17T21:55:45.226Z,-5.31
2022-10-17T21:58:48.960Z,-5.54
2022-10-17T22:01:52.099Z,-5.75
2022-10-17T22:04:55.134Z,-5.89
2022-10-17T22:07:58.174Z,-6.02
2022-10-17T22:11:12.080Z,-6.06
2022-10-17T22:14:18.361Z,-6.01
2022-10-17T22:17:21.310Z,-5.91
2022-10-17T22:20:24.406Z,-5.79
2022-10-17T22:23:27.354Z,-5.73
2022-10-17T22:26:31.982Z,-5.66
2022-10-17T22:29:35.095Z,-5.65
2022-10-17T22:32:38.110Z,-5.99
2022-10-17T22:35:43.176Z,-6.31
2022-10-17T22:38:46.270Z,-6.40
2022-10-17T22:41:49.413Z,-6.33
2022-10-17T22:44:52.554Z,-6.23
2022-10-17T22:47:55.648Z,-6.21
2022-10-17T22:51:00.100Z,-6.26
2022-10-17T22:54:03.235Z,-6.30
2022-10-17T22:57:06.299Z,-6.18
2022-10-17T23:00:12.032Z,-6.00
2022-10-17T23:03:15.455Z,-5.96
2022-10-17T23:06:19.324Z,-6.19
2022-10-17T23:09:22.466Z,-6.51
2022-10-17T23:12:25.519Z,-6.63
2022-10-17T23:15:28.556Z,-6.66
2022-10-17T23:21:34.309Z,-6.22
2022-10-17T23:24:37.411Z,-5.98
2022-10-17T23:27:40.526Z,-5.88
2022-10-17T23:30:43.739Z,-5.84
2022-10-17T23:33:48.429Z,-5.75
2022-10-17T23:36:52.319Z,-5.61
2022-10-17T23:39:55.396Z,-5.55
2022-10-17T23:42:58.428Z,-5.75
2022-10-17T23:46:02.839Z,-5.97
2022-10-17T23:49:07.066Z,-6.07
2022-10-17T23:52:10.092Z,-5.90
2022-10-17T23:55:13.090Z,-5.45
2022-10-17T23:58:16.104Z,-4.74
